Time;durP1;ratioP1;P1;durP2;ratioP2;P2;SDS_P1;SDS_P2;PMS_P1;PMS_P2;Temp;Humidity;BMP_temperature;BMP_pressure;BME280_temperature;BME280_humidity;BME280_pressure;Samples;Min_cycle;Max_cycle;Signal;HPM_P1;HPM_P2
2023/09/12 00:00:13;;;;;;;;;5.75;5.75;;;;;29.57;100.00;100669.88;2122959;27;45535;-61
2023/09/12 00:01:13;;;;;;;;;5.50;5.00;;;;;29.64;100.00;100655.56;2122404;27;46809;-62
2023/09/12 00:02:13;;;;;;;;;5.50;5.50;;;;;29.57;100.00;100650.72;2122927;27;46312;-62
2023/09/12 00:03:14;;;;;;;;;6.75;6.75;;;;;29.59;100.00;100656.03;2122526;27;46335;-62
2023/09/12 00:04:15;;;;;;;;;7.00;6.20;;;;;29.58;100.00;100646.97;2121319;27;47381;-62
2023/09/12 00:05:15;;;;;;;;;9.25;5.50;;;;;29.58;100.00;100651.56;2122830;27;46716;-62
2023/09/12 00:06:16;;;;;;;;;5.00;5.00;;;;;29.56;100.00;100659.09;2122323;27;46132;-62
2023/09/12 00:07:17;;;;;;;;;5.00;5.00;;;;;29.54;100.00;100661.97;2122760;27;46413;-62
2023/09/12 00:08:17;;;;;;;;;5.50;5.50;;;;;29.68;100.00;100665.16;2122743;27;46348;-62
2023/09/12 00:09:17;;;;;;;;;3.00;3.00;;;;;29.51;100.00;100661.44;2122280;27;46810;-63
2023/09/12 00:10:18;;;;;;;;;7.00;6.25;;;;;29.48;100.00;100656.28;2122609;27;46638;-61
2023/09/12 00:11:18;;;;;;;;;5.75;5.75;;;;;29.46;100.00;100653.66;2123043;27;46278;-62
2023/09/12 00:12:22;;;;;;;;;7.00;7.00;;;;;29.47;100.00;100663.63;2122807;27;46827;-61
2023/09/12 00:13:23;;;;;;;;;7.20;6.40;;;;;29.46;100.00;100661.88;2086923;28;46849;-62
2023/09/12 00:14:23;;;;;;;;;5.50;5.50;;;;;29.46;100.00;100661.88;2087601;28;46357;-60
2023/09/12 00:15:23;;;;;;;;;6.50;6.50;;;;;29.44;100.00;100661.16;2114158;27;46200;-62
2023/09/12 00:16:23;;;;;;;;;7.00;7.00;;;;;29.43;100.00;100658.59;2120800;27;46330;-62
2023/09/12 00:17:26;;;;;;;;;4.00;4.00;;;;;29.42;100.00;100660.47;2122246;27;46198;-61
2023/09/12 00:18:27;;;;;;;;;3.40;3.40;;;;;29.42;100.00;100660.47;2122713;27;46750;-62
2023/09/12 00:19:27;;;;;;;;;6.00;6.00;;;;;29.41;100.00;100661.47;2121017;27;46368;-62
2023/09/12 00:20:28;;;;;;;;;4.75;4.75;;;;;29.42;100.00;100662.34;2122499;27;46305;-61
2023/09/12 00:21:28;;;;;;;;;7.75;5.50;;;;;29.41;100.00;100661.47;2121283;27;46741;-61
2023/09/12 00:22:28;;;;;;;;;5.25;5.25;;;;;29.42;100.00;100662.34;2122222;27;46205;-60
2023/09/12 00:23:29;;;;;;;;;5.75;5.75;;;;;29.41;100.00;100656.00;2122556;27;46460;-61
2023/09/12 00:24:29;;;;;;;;;6.75;6.75;;;;;29.41;100.00;100658.75;2122848;27;46379;-61
2023/09/12 00:25:29;;;;;;;;;4.25;4.25;;;;;29.39;100.00;100666.25;2122377;27;46602;-61
2023/09/12 00:26:30;;;;;;;;;6.00;6.00;;;;;29.33;100.00;100666.84;2123314;27;45692;-62
2023/09/12 00:27:30;;;;;;;;;6.25;6.25;;;;;29.30;100.00;100662.56;2112901;27;46331;-62
2023/09/12 00:28:31;;;;;;;;;5.50;5.50;;;;;29.27;100.00;100660.16;2113549;27;46524;-61
2023/09/12 00:29:32;;;;;;;;;7.25;7.25;;;;;29.24;100.00;100660.47;2121781;27;46441;-62
2023/09/12 00:30:32;;;;;;;;;5.40;5.00;;;;;29.26;100.00;100657.59;2121996;27;46346;-62
2023/09/12 00:31:33;;;;;;;;;4.75;4.75;;;;;29.27;100.00;100659.28;2114531;27;45068;-62
2023/09/12 00:32:33;;;;;;;;;5.75;5.75;;;;;29.24;100.00;100654.16;2120758;27;46702;-62
2023/09/12 00:33:33;;;;;;;;;5.75;5.00;;;;;29.24;100.00;100663.22;2122639;27;46208;-62
2023/09/12 00:34:33;;;;;;;;;5.75;5.75;;;;;29.24;100.00;100665.09;2122001;27;46327;-62
2023/09/12 00:35:34;;;;;;;;;7.00;6.25;;;;;29.20;100.00;100661.78;2117867;27;46966;-62
2023/09/12 00:36:36;;;;;;;;;5.50;5.50;;;;;29.22;100.00;100667.09;2113388;27;46590;-61
2023/09/12 00:37:37;;;;;;;;;4.40;4.40;;;;;29.23;100.00;100666.97;2113566;27;46232;-62
2023/09/12 00:38:37;;;;;;;;;7.25;7.25;;;;;29.25;100.00;100673.13;2122314;27;46422;-61
2023/09/12 00:39:37;;;;;;;;;6.00;6.00;;;;;29.23;100.00;100666.09;2115433;27;46267;-61
2023/09/12 00:40:38;;;;;;;;;6.75;6.75;;;;;29.20;100.00;100663.66;2115847;27;46215;-62
2023/09/12 00:41:38;;;;;;;;;5.50;5.50;;;;;29.19;100.00;100667.41;2114286;27;45899;-62
2023/09/12 00:42:38;;;;;;;;;7.00;7.00;;;;;29.21;100.00;100670.84;2118880;27;46249;-62
2023/09/12 00:43:39;;;;;;;;;6.00;6.00;;;;;29.19;100.00;100671.00;2122586;27;46532;-62
2023/09/12 00:44:39;;;;;;;;;6.00;6.00;;;;;29.18;100.00;100662.94;2122450;27;46895;-62
2023/09/12 00:45:41;;;;;;;;;5.25;4.50;;;;;29.15;100.00;100666.00;2119329;27;46607;-62
2023/09/12 00:46:44;;;;;;;;;8.40;6.80;;;;;29.05;100.00;100662.47;2122631;27;46455;-62
2023/09/12 00:47:45;;;;;;;;;4.20;4.20;;;;;29.09;100.00;100662.00;2113042;27;46425;-61
2023/09/12 00:48:46;;;;;;;;;5.20;5.20;;;;;28.93;100.00;100659.09;2113345;27;45994;-62
2023/09/12 00:49:49;;;;;;;;;6.20;6.20;;;;;28.92;100.00;100654.63;2122503;27;46318;-62
2023/09/12 00:50:50;;;;;;;;;6.20;6.20;;;;;28.90;100.00;100663.00;2122267;27;46767;-62
2023/09/12 00:51:51;;;;;;;;;5.40;5.40;;;;;28.92;100.00;100657.38;2121094;27;46983;-62
2023/09/12 00:52:54;;;;;;;;;1.75;1.00;;;;;29.04;100.00;100656.16;2122604;27;46599;-62
2023/09/12 00:53:55;;;;;;;;;6.00;5.60;;;;;29.07;100.00;100654.97;2122095;27;46754;-62
2023/09/12 00:54:55;;;;;;;;;7.60;7.00;;;;;29.07;100.00;100654.97;2122176;27;47623;-61
2023/09/12 00:55:58;;;;;;;;;5.50;5.50;;;;;29.08;100.00;100648.50;2122257;27;46293;-62
2023/09/12 00:56:58;;;;;;;;;8.20;7.40;;;;;29.07;100.00;100653.09;2113160;27;46973;-62
2023/09/12 00:58:00;;;;;;;;;7.25;6.50;;;;;29.06;100.00;100651.38;2112937;27;46225;-62
2023/09/12 00:59:02;;;;;;;;;7.00;7.00;;;;;29.05;100.00;100649.66;2122255;27;46472;-62
2023/09/12 01:00:11;;;;;;;;;7.20;7.00;;;;;29.08;100.00;100653.94;2122415;27;46353;-62
2023/09/12 01:01:11;;;;;;;;;5.80;5.80;;;;;29.08;100.00;100660.28;2113638;27;46775;-62
2023/09/12 01:02:11;;;;;;;;;7.50;7.50;;;;;29.09;100.00;100653.78;2113335;27;46357;-62
2023/09/12 01:03:12;;;;;;;;;10.75;9.50;;;;;29.08;100.00;100653.94;2121982;27;46449;-62
2023/09/12 01:04:13;;;;;;;;;7.50;7.50;;;;;29.06;100.00;100654.13;2122372;27;46227;-62
2023/09/12 01:05:14;;;;;;;;;7.00;7.00;;;;;29.08;100.00;100654.81;2122452;27;46716;-62
2023/09/12 01:06:21;;;;;;;;;8.00;8.00;;;;;29.09;100.00;100651.06;2120773;27;46445;-61
2023/09/12 01:07:22;;;;;;;;;6.60;6.60;;;;;29.08;100.00;100651.22;2120670;27;46635;-62
2023/09/12 01:08:22;;;;;;;;;6.00;6.00;;;;;29.08;100.00;100660.28;2122366;27;45016;-62
2023/09/12 01:09:22;;;;;;;;;8.25;8.25;;;;;28.96;100.00;100661.50;2122066;27;46486;-62
2023/09/12 01:10:23;;;;;;;;;9.00;9.00;;;;;28.90;100.00;100656.66;2122208;27;46775;-61
2023/09/12 01:11:24;;;;;;;;;7.00;7.00;;;;;28.89;100.00;100653.06;2122516;27;46776;-62
2023/09/12 01:12:24;;;;;;;;;11.50;10.00;;;;;29.01;100.00;100659.19;2122561;27;46341;-62
2023/09/12 01:13:25;;;;;;;;;8.75;8.75;;;;;29.07;100.00;100660.44;2122416;27;46664;-62
2023/09/12 01:14:25;;;;;;;;;7.50;7.00;;;;;29.06;100.00;100665.03;2103738;28;46332;-62
2023/09/12 01:15:26;;;;;;;;;9.25;8.25;;;;;29.01;100.00;100667.38;2104078;28;46447;-63
2023/09/12 01:16:26;;;;;;;;;8.75;8.75;;;;;29.06;100.00;100667.78;2113692;27;45938;-62
2023/09/12 01:17:27;;;;;;;;;8.00;6.50;;;;;29.05;100.00;100659.72;2113336;27;46639;-61
2023/09/12 01:18:28;;;;;;;;;11.80;9.40;;;;;29.05;100.00;100657.00;2113173;27;46356;-62
2023/09/12 01:19:28;;;;;;;;;11.75;10.75;;;;;29.04;100.00;100658.03;2113692;27;46537;-62
2023/09/12 01:20:32;;;;;;;;;8.00;7.75;;;;;28.91;100.00;100651.06;2113494;27;46313;-62
2023/09/12 01:21:57;;;;;;;;;9.00;9.00;;;;;28.92;100.00;100655.50;2113703;27;46525;-62
2023/09/12 01:23:15;;;;;;;;;8.00;8.00;;;;;28.92;100.00;100651.91;2113506;27;47048;-62
2023/09/12 01:24:33;;;;;;;;;7.20;7.20;;;;;28.90;100.00;100656.66;2113295;27;47047;-62
2023/09/12 01:25:52;;;;;;;;;9.20;8.80;;;;;28.94;100.00;100649.88;2113704;27;47160;-61
2023/09/12 01:27:19;;;;;;;;;10.40;9.40;;;;;28.97;100.00;100652.31;2113546;27;46804;-61
2023/09/12 01:28:23;;;;;;;;;9.60;9.60;;;;;28.95;100.00;100646.13;2112159;27;46520;-61
2023/09/12 01:29:25;;;;;;;;;9.80;9.00;;;;;28.94;100.00;100639.81;2108491;27;46813;-63
2023/09/12 01:30:28;;;;;;;;;10.20;9.80;;;;;28.88;100.00;100643.16;2113586;27;46961;-63
2023/09/12 01:31:29;;;;;;;;;11.40;10.40;;;;;28.83;100.00;100634.53;2113723;27;46377;-61
2023/09/12 01:32:32;;;;;;;;;8.67;7.67;;;;;28.81;100.00;100632.97;2113645;27;46852;-62
2023/09/12 01:33:32;;;;;;;;;10.20;7.60;;;;;28.78;100.00;100633.28;2113413;27;46560;-62
2023/09/12 01:34:32;;;;;;;;;8.25;8.25;;;;;28.75;100.00;100636.31;2113763;27;46253;-61
2023/09/12 01:35:32;;;;;;;;;11.00;9.50;;;;;28.74;100.00;100638.19;2113809;27;46562;-61
2023/09/12 01:36:33;;;;;;;;;10.75;9.50;;;;;28.71;100.00;100639.38;2113313;27;46520;-61
2023/09/12 01:37:34;;;;;;;;;7.75;7.75;;;;;28.68;100.00;100645.09;2113834;27;46621;-62
2023/09/12 01:38:34;;;;;;;;;8.00;8.00;;;;;28.67;100.00;100639.78;2113752;27;46397;-61
2023/09/12 01:39:35;;;;;;;;;8.50;8.50;;;;;28.67;100.00;100648.84;2113189;27;46434;-61
2023/09/12 01:40:48;;;;;;;;;7.50;7.50;;;;;28.68;100.00;100653.28;2113477;27;46324;-62
2023/09/12 01:41:52;;;;;;;;;10.80;9.00;;;;;28.69;100.00;100655.00;2113517;27;46508;-62
2023/09/12 01:42:54;;;;;;;;;10.80;9.00;;;;;28.69;100.00;100659.63;2113484;27;45127;-62
2023/09/12 01:43:56;;;;;;;;;8.60;8.40;;;;;28.69;100.00;100662.34;2112678;27;46445;-61
2023/09/12 01:44:57;;;;;;;;;13.40;11.60;;;;;28.68;100.00;100663.34;2113044;27;46945;-61
2023/09/12 01:46:00;;;;;;;;;9.20;8.00;;;;;28.67;100.00;100672.56;2113311;27;46300;-61
2023/09/12 01:47:03;;;;;;;;;8.20;8.20;;;;;28.67;100.00;100669.84;2113579;27;46440;-61
2023/09/12 01:48:06;;;;;;;;;8.80;8.40;;;;;28.66;100.00;100671.72;2111954;27;46640;-62
2023/09/12 01:49:10;;;;;;;;;10.80;10.80;;;;;28.66;100.00;100670.84;2113102;27;46596;-61
2023/09/12 01:50:13;;;;;;;;;8.60;8.60;;;;;28.65;100.00;100669.13;2113427;27;47107;-61
2023/09/12 01:51:15;;;;;;;;;7.60;7.40;;;;;28.63;100.00;100671.16;2113327;27;46567;-62
2023/09/12 01:52:16;;;;;;;;;11.00;9.00;;;;;28.61;100.00;100662.25;2113602;27;46612;-62
2023/09/12 01:53:17;;;;;;;;;8.80;8.80;;;;;28.63;100.00;100658.38;2113680;27;46792;-60
2023/09/12 01:54:19;;;;;;;;;9.80;9.80;;;;;28.55;100.00;100663.69;2113302;27;46324;-62
2023/09/12 01:55:21;;;;;;;;;8.00;8.00;;;;;28.60;100.00;100660.53;2113563;27;45719;-62
2023/09/12 01:56:23;;;;;;;;;8.80;8.80;;;;;28.58;100.00;100657.06;2113500;27;46496;-62
2023/09/12 01:57:24;;;;;;;;;9.00;9.00;;;;;28.55;100.00;100660.97;2113290;27;46762;-62
2023/09/12 01:58:25;;;;;;;;;11.00;10.00;;;;;28.55;100.00;100657.38;2113097;27;46680;-62
2023/09/12 01:59:25;;;;;;;;;7.80;7.80;;;;;28.52;100.00;100665.88;2112977;27;48094;-62
2023/09/12 02:00:26;;;;;;;;;9.00;9.00;;;;;28.48;100.00;100667.22;2121288;27;46661;-63
2023/09/12 02:01:27;;;;;;;;;9.00;9.00;;;;;28.39;100.00;100664.34;2113710;27;46364;-62
2023/09/12 02:02:27;;;;;;;;;10.60;10.00;;;;;28.35;100.00;100664.81;2113713;27;45260;-62
2023/09/12 02:03:28;;;;;;;;;11.25;9.25;;;;;28.47;100.00;100668.22;2110983;27;46553;-62
2023/09/12 02:04:28;;;;;;;;;9.00;9.00;;;;;28.44;100.00;100661.16;2112769;27;45989;-63
2023/09/12 02:05:28;;;;;;;;;8.50;8.50;;;;;28.44;100.00;100674.81;2112836;27;46363;-61
2023/09/12 02:06:29;;;;;;;;;8.00;8.00;;;;;28.33;100.00;100666.81;2113508;27;46344;-62
2023/09/12 02:07:34;;;;;;;;;9.00;9.00;;;;;28.38;100.00;100668.09;2113144;27;46537;-62
2023/09/12 02:08:34;;;;;;;;;7.40;7.40;;;;;28.40;100.00;100671.53;2113690;27;45940;-62
2023/09/12 02:09:34;;;;;;;;;10.75;9.75;;;;;28.39;100.00;100678.00;2113458;27;46317;-62
2023/09/12 02:10:35;;;;;;;;;8.75;8.75;;;;;28.37;100.00;100663.66;2113142;27;46809;-62
2023/09/12 02:11:35;;;;;;;;;10.00;9.00;;;;;28.37;100.00;100668.25;2113357;27;46637;-62
2023/09/12 02:12:35;;;;;;;;;8.00;8.00;;;;;28.31;100.00;100666.09;2113114;27;46148;-63
2023/09/12 02:13:36;;;;;;;;;9.75;9.75;;;;;28.27;100.00;100661.94;2113472;27;46573;-62
2023/09/12 02:14:36;;;;;;;;;10.00;10.00;;;;;28.37;100.00;100670.97;2118620;27;46269;-61
2023/09/12 02:15:36;;;;;;;;;12.25;10.25;;;;;28.36;100.00;100674.72;2121823;27;46508;-61
2023/09/12 02:16:37;;;;;;;;;12.25;12.25;;;;;28.36;100.00;100674.72;2121434;27;46823;-61
2023/09/12 02:17:38;;;;;;;;;9.00;9.00;;;;;28.34;100.00;100674.00;2121311;27;45746;-62
2023/09/12 02:18:39;;;;;;;;;13.20;11.00;;;;;28.33;100.00;100669.53;2116824;27;46770;-62
2023/09/12 02:19:39;;;;;;;;;8.50;8.50;;;;;28.33;100.00;100672.25;2121856;27;46100;-59
2023/09/12 02:20:41;;;;;;;;;10.50;10.50;;;;;28.34;100.00;100663.09;2121840;27;46468;-62
2023/09/12 02:21:41;;;;;;;;;11.00;11.00;;;;;28.34;100.00;100676.75;2121867;27;46827;-62
2023/09/12 02:22:42;;;;;;;;;9.00;9.00;;;;;28.31;100.00;100660.63;2121743;27;46575;-62
2023/09/12 02:23:42;;;;;;;;;10.00;9.00;;;;;28.32;100.00;100668.69;2122110;27;46252;-62
2023/09/12 02:24:42;;;;;;;;;8.75;8.75;;;;;28.31;100.00;100663.38;2121493;27;46692;-62
2023/09/12 02:25:43;;;;;;;;;8.75;8.75;;;;;28.29;100.00;100657.19;2112925;27;47636;-62
2023/09/12 02:26:44;;;;;;;;;9.50;8.75;;;;;28.29;100.00;100657.19;2112797;27;46375;-62
2023/09/12 02:27:44;;;;;;;;;10.60;9.20;;;;;28.29;100.00;100659.94;2121769;27;46341;-62
2023/09/12 02:28:45;;;;;;;;;13.00;11.50;;;;;28.27;100.00;100660.09;2122031;27;46436;-63
2023/09/12 02:29:45;;;;;;;;;10.80;10.80;;;;;28.26;100.00;100662.94;2121823;27;46717;-63
2023/09/12 02:30:46;;;;;;;;;11.00;11.00;;;;;28.25;100.00;100655.75;2121256;27;46773;-63
2023/09/12 02:31:46;;;;;;;;;9.50;9.50;;;;;28.22;100.00;100661.53;2121928;27;46340;-60
2023/09/12 02:32:46;;;;;;;;;8.00;8.00;;;;;28.23;100.00;100657.78;2121790;27;46555;-62
2023/09/12 02:33:47;;;;;;;;;9.50;9.50;;;;;28.23;100.00;100657.78;2112498;27;46609;-63
2023/09/12 02:34:48;;;;;;;;;11.00;11.00;;;;;28.21;100.00;100657.06;2110955;27;46455;-61
2023/09/12 02:35:48;;;;;;;;;11.00;11.00;;;;;28.20;100.00;100667.09;2121823;27;46605;-62
2023/09/12 02:36:48;;;;;;;;;10.25;8.75;;;;;28.19;100.00;100659.91;2121482;27;46684;-61
2023/09/12 02:37:49;;;;;;;;;8.25;8.25;;;;;28.18;100.00;100662.81;2121826;27;46728;-62
2023/09/12 02:38:49;;;;;;;;;11.25;11.25;;;;;28.17;100.00;100672.00;2122515;27;46498;-62
2023/09/12 02:39:49;;;;;;;;;10.50;10.50;;;;;28.11;100.00;100660.69;2121911;27;46949;-62
2023/09/12 02:40:49;;;;;;;;;12.50;12.50;;;;;28.08;100.00;100660.97;2121446;27;46245;-62
2023/09/12 02:41:50;;;;;;;;;10.50;10.50;;;;;28.09;100.00;100661.84;2112581;27;46511;-61
2023/09/12 02:42:50;;;;;;;;;11.50;11.50;;;;;28.10;100.00;100663.56;2112314;27;46366;-63
2023/09/12 02:43:51;;;;;;;;;11.75;11.25;;;;;28.07;100.00;100655.66;2121826;27;46726;-62
2023/09/12 02:44:52;;;;;;;;;13.00;11.50;;;;;28.07;100.00;100659.22;2120684;27;46811;-61
2023/09/12 02:45:52;;;;;;;;;12.20;12.20;;;;;28.04;100.00;100658.69;2122259;27;46445;-62
2023/09/12 02:46:53;;;;;;;;;10.50;10.50;;;;;28.04;100.00;100659.53;2121911;27;46266;-61
2023/09/12 02:47:53;;;;;;;;;10.00;10.00;;;;;28.04;100.00;100659.53;2123344;27;46854;-62
2023/09/12 02:48:53;;;;;;;;;14.00;13.75;;;;;28.00;100.00;100660.84;2117535;27;46071;-62
2023/09/12 02:49:54;;;;;;;;;10.00;10.00;;;;;28.02;100.00;100658.81;2119176;27;46314;-62
2023/09/12 02:50:54;;;;;;;;;11.25;9.75;;;;;28.05;100.00;100654.94;2123359;27;46831;-63
2023/09/12 02:51:54;;;;;;;;;14.50;12.50;;;;;28.04;100.00;100654.09;2121898;27;46355;-63
2023/09/12 02:52:55;;;;;;;;;8.75;8.75;;;;;28.05;100.00;100652.22;2122862;27;46370;-63
2023/09/12 02:53:55;;;;;;;;;11.75;11.75;;;;;28.05;100.00;100649.47;2123075;27;46959;-63
2023/09/12 02:54:55;;;;;;;;;12.75;12.75;;;;;28.08;100.00;100651.94;2122654;27;46431;-63
2023/09/12 02:55:55;;;;;;;;;12.75;11.00;;;;;28.06;100.00;100646.59;2113615;27;46293;-63
2023/09/12 02:56:56;;;;;;;;;12.50;10.75;;;;;28.08;100.00;100643.75;2114009;27;46433;-62
2023/09/12 02:57:56;;;;;;;;;12.00;12.00;;;;;28.08;100.00;100643.75;2123235;27;46667;-63
2023/09/12 02:58:57;;;;;;;;;10.75;10.75;;;;;28.07;100.00;100650.19;2123219;27;46122;-62
2023/09/12 02:59:57;;;;;;;;;14.75;14.00;;;;;28.06;100.00;100648.47;2122905;27;46622;-62
2023/09/12 03:00:57;;;;;;;;;10.50;10.50;;;;;28.05;100.00;100644.88;2123126;27;45887;-62
2023/09/12 03:01:58;;;;;;;;;13.50;12.00;;;;;28.05;100.00;100644.88;2122767;27;46436;-62
2023/09/12 03:02:58;;;;;;;;;9.00;9.00;;;;;28.05;100.00;100647.63;2122915;27;46270;-61
2023/09/12 03:03:59;;;;;;;;;12.25;10.75;;;;;28.05;100.00;100649.47;2123292;27;46204;-62
2023/09/12 03:04:59;;;;;;;;;12.50;12.50;;;;;27.94;100.00;100644.19;2114087;27;46182;-61
2023/09/12 03:06:02;;;;;;;;;13.00;12.50;;;;;27.90;100.00;100646.34;2113622;27;46419;-62
2023/09/12 03:07:03;;;;;;;;;11.20;11.00;;;;;27.90;100.00;100642.78;2114656;27;46614;-61
2023/09/12 03:08:03;;;;;;;;;18.50;18.50;;;;;27.88;100.00;100648.38;2120518;27;46725;-62
2023/09/12 03:09:04;;;;;;;;;18.50;17.75;;;;;27.92;100.00;100648.94;2123088;27;46622;-61
2023/09/12 03:10:05;;;;;;;;;19.75;19.75;;;;;28.00;100.00;100651.81;2112439;27;46225;-61
2023/09/12 03:11:07;;;;;;;;;15.25;14.50;;;;;28.03;100.00;100646.03;2113562;27;46462;-62
2023/09/12 03:12:07;;;;;;;;;13.60;12.60;;;;;28.01;100.00;100648.06;2123377;27;46969;-62
2023/09/12 03:13:07;;;;;;;;;12.00;12.00;;;;;27.99;100.00;100652.81;2122968;27;46495;-62
2023/09/12 03:14:08;;;;;;;;;14.00;13.25;;;;;27.97;100.00;100650.25;2122912;27;46626;-62
2023/09/12 03:15:09;;;;;;;;;12.00;10.75;;;;;27.95;100.00;100648.63;2123137;27;46168;-61
2023/09/12 03:16:15;;;;;;;;;13.00;12.80;;;;;27.94;100.00;100650.50;2123183;27;47144;-63
2023/09/12 03:17:16;;;;;;;;;13.60;13.00;;;;;27.91;100.00;100642.63;2122834;27;46650;-61
2023/09/12 03:18:16;;;;;;;;;14.75;13.75;;;;;27.79;100.00;100650.09;2113909;27;46244;-62
2023/09/12 03:19:16;;;;;;;;;12.75;12.75;;;;;27.76;100.00;100652.28;2114014;27;45616;-63
2023/09/12 03:20:16;;;;;;;;;7.75;7.75;;;;;27.76;100.00;100655.00;2122674;27;46923;-63
2023/09/12 03:21:17;;;;;;;;;14.25;14.00;;;;;27.72;100.00;100649.00;2123098;27;46276;-62
2023/09/12 03:22:17;;;;;;;;;13.00;12.75;;;;;27.69;100.00;100643.81;2113720;27;45238;-62
2023/09/12 03:23:19;;;;;;;;;14.00;13.25;;;;;27.84;100.00;100645.09;2113636;27;46645;-61
2023/09/12 03:24:21;;;;;;;;;12.80;11.80;;;;;27.87;100.00;100651.25;2123449;27;46446;-62
2023/09/12 03:25:21;;;;;;;;;11.40;9.80;;;;;27.90;100.00;100654.53;2122421;27;46561;-63
2023/09/12 03:26:21;;;;;;;;;14.25;14.25;;;;;27.91;100.00;100652.69;2121458;27;46686;-62
2023/09/12 03:27:22;;;;;;;;;10.75;10.75;;;;;27.91;100.00;100658.13;2123068;27;46515;-61
2023/09/12 03:28:22;;;;;;;;;12.00;12.00;;;;;27.89;100.00;100660.16;2123033;27;46433;-61
2023/09/12 03:29:23;;;;;;;;;10.75;10.75;;;;;27.86;100.00;100650.41;2113646;27;46872;-62
2023/09/12 03:30:23;;;;;;;;;10.00;9.75;;;;;27.88;100.00;100659.28;2113965;27;46357;-62
2023/09/12 03:31:23;;;;;;;;;14.50;14.50;;;;;27.88;100.00;100653.84;2122810;27;46801;-62
2023/09/12 03:32:23;;;;;;;;;10.50;10.50;;;;;27.87;100.00;100657.56;2113401;27;46261;-61
2023/09/12 03:33:24;;;;;;;;;13.75;12.25;;;;;27.88;100.00;100658.44;2113655;27;46764;-61
2023/09/12 03:34:24;;;;;;;;;12.50;12.50;;;;;27.85;100.00;100663.19;2120687;27;46688;-62
2023/09/12 03:35:25;;;;;;;;;10.00;10.00;;;;;27.84;100.00;100664.19;2113525;27;46429;-62
2023/09/12 03:36:25;;;;;;;;;15.25;12.25;;;;;27.81;100.00;100663.59;2119399;27;46510;-61
2023/09/12 03:37:28;;;;;;;;;13.50;12.50;;;;;27.80;100.00;100659.16;2122483;27;46771;-62
2023/09/12 03:38:28;;;;;;;;;14.20;13.40;;;;;27.83;100.00;100667.91;2122815;27;46345;-61
2023/09/12 03:39:29;;;;;;;;;12.00;11.25;;;;;27.84;100.00;100661.47;2122988;27;46355;-62
2023/09/12 03:40:32;;;;;;;;;11.25;11.00;;;;;28.06;100.00;100670.28;2122999;27;46143;-62
2023/09/12 03:41:34;;;;;;;;;8.80;8.80;;;;;27.91;100.00;100669.03;2122716;27;46984;-62
2023/09/12 03:42:34;;;;;;;;;12.20;12.00;;;;;27.87;100.00;100673.06;2098959;28;46601;-62
2023/09/12 03:43:34;;;;;;;;;14.00;12.75;;;;;27.83;100.00;100672.50;2099746;27;46279;-62
2023/09/12 03:44:35;;;;;;;;;13.25;13.25;;;;;27.82;100.00;100673.50;2114556;27;46207;-62
2023/09/12 03:45:35;;;;;;;;;11.50;10.75;;;;;27.94;100.00;100674.19;2118186;27;46504;-62
2023/09/12 03:46:35;;;;;;;;;11.75;11.75;;;;;27.83;100.00;100673.38;2113927;27;45961;-64
2023/09/12 03:47:36;;;;;;;;;10.25;10.25;;;;;27.82;100.00;100668.94;2113292;27;46507;-63
2023/09/12 03:48:36;;;;;;;;;14.50;13.25;;;;;27.79;100.00;100671.06;2120420;27;46387;-62
2023/09/12 03:49:36;;;;;;;;;12.00;12.00;;;;;27.81;100.00;100674.50;2113808;27;46494;-62
2023/09/12 03:50:37;;;;;;;;;12.50;12.00;;;;;27.82;100.00;100673.50;2119239;27;46449;-62
2023/09/12 03:51:37;;;;;;;;;10.00;9.75;;;;;27.82;100.00;100678.94;2122925;27;45889;-62
2023/09/12 03:52:38;;;;;;;;;12.25;11.50;;;;;27.82;100.00;100677.13;2119494;27;46745;-62
2023/09/12 03:53:38;;;;;;;;;13.00;11.75;;;;;27.83;100.00;100678.84;2108865;27;46582;-61
2023/09/12 03:54:39;;;;;;;;;12.00;10.75;;;;;27.83;100.00;100680.69;2113559;27;46449;-61
2023/09/12 03:55:39;;;;;;;;;12.25;12.25;;;;;27.83;100.00;100677.97;2103910;28;46149;-63
2023/09/12 03:56:39;;;;;;;;;13.00;12.00;;;;;27.82;100.00;100685.28;2104782;28;46600;-61
2023/09/12 03:57:40;;;;;;;;;11.75;11.75;;;;;27.82;100.00;100685.28;2122339;27;47227;-63
2023/09/12 03:58:40;;;;;;;;;11.00;10.00;;;;;27.84;100.00;100682.41;2122819;27;46675;-62
2023/09/12 03:59:40;;;;;;;;;12.25;11.50;;;;;27.82;100.00;100679.84;2122517;27;46297;-62
2023/09/12 04:00:41;;;;;;;;;12.50;11.25;;;;;27.83;100.00;100680.69;2120931;27;46221;-62
2023/09/12 04:01:41;;;;;;;;;10.00;10.00;;;;;27.84;100.00;100682.41;2122919;27;46276;-63
2023/09/12 04:02:41;;;;;;;;;12.75;12.25;;;;;27.84;100.00;100682.41;2113454;27;46755;-63
2023/09/12 04:03:42;;;;;;;;;14.25;13.75;;;;;27.83;100.00;100676.09;2114164;27;45998;-63
2023/09/12 04:04:42;;;;;;;;;13.00;13.00;;;;;27.82;100.00;100682.56;2104422;28;46395;-63
2023/09/12 04:05:42;;;;;;;;;14.75;14.75;;;;;27.81;100.00;100689.00;2104854;28;46430;-62
2023/09/12 04:06:43;;;;;;;;;10.50;10.50;;;;;27.80;100.00;100691.88;2122924;27;46652;-63
2023/09/12 04:07:43;;;;;;;;;13.25;13.25;;;;;27.79;100.00;100684.69;2104217;28;46837;-62
2023/09/12 04:08:43;;;;;;;;;11.75;11.75;;;;;27.77;100.00;100695.75;2096410;28;46679;-59
2023/09/12 04:09:44;;;;;;;;;14.75;13.50;;;;;27.75;100.00;100694.19;2113540;27;46652;-62
2023/09/12 04:10:44;;;;;;;;;15.50;14.50;;;;;27.74;100.00;100687.88;2122767;27;47060;-61
2023/09/12 04:11:45;;;;;;;;;9.75;9.75;;;;;27.75;100.00;100691.47;2113433;27;46420;-63
2023/09/12 04:12:45;;;;;;;;;12.25;11.75;;;;;27.75;100.00;100686.88;2113294;27;47225;-62
2023/09/12 04:13:45;;;;;;;;;11.50;11.50;;;;;27.87;100.00;100679.38;2122442;27;46649;-62
2023/09/12 04:14:46;;;;;;;;;12.00;12.00;;;;;28.03;100.00;100681.50;2122670;27;46726;-62
2023/09/12 04:15:46;;;;;;;;;12.50;11.75;;;;;28.08;100.00;100673.75;2122731;27;46318;-62
2023/09/12 04:16:46;;;;;;;;;14.50;12.50;;;;;28.11;100.00;100682.50;2110906;27;46776;-61
2023/09/12 04:17:47;;;;;;;;;14.25;13.75;;;;;28.11;100.00;100673.47;2113385;27;46197;-61
2023/09/12 04:18:47;;;;;;;;;7.00;7.00;;;;;28.14;100.00;100668.56;2122695;27;46735;-61
2023/09/12 04:19:47;;;;;;;;;15.25;15.25;;;;;28.14;100.00;100665.84;2122371;27;46086;-62
2023/09/12 04:20:48;;;;;;;;;13.25;12.75;;;;;28.13;100.00;100664.13;2122912;27;46299;-62
2023/09/12 04:21:48;;;;;;;;;14.50;14.50;;;;;28.09;100.00;100670.88;2122212;27;46308;-61
2023/09/12 04:22:48;;;;;;;;;11.75;11.75;;;;;27.89;100.00;100668.34;2122718;27;46701;-62
2023/09/12 04:23:50;;;;;;;;;15.00;13.00;;;;;27.81;100.00;100674.50;2123127;27;46331;-62
2023/09/12 04:24:50;;;;;;;;;15.80;13.60;;;;;27.79;100.00;100679.25;2114029;27;46807;-62
2023/09/12 04:25:50;;;;;;;;;15.75;15.75;;;;;27.76;100.00;100677.69;2105207;28;46697;-61
2023/09/12 04:26:50;;;;;;;;;12.75;12.25;;;;;27.73;100.00;100680.69;2113579;27;45758;-62
2023/09/12 04:27:51;;;;;;;;;18.75;16.50;;;;;27.70;100.00;100688.31;2122514;27;46264;-62
2023/09/12 04:28:51;;;;;;;;;12.25;12.00;;;;;27.68;100.00;100687.56;2122687;27;46413;-63
2023/09/12 04:29:52;;;;;;;;;13.00;11.25;;;;;27.66;100.00;100689.59;2122108;27;46228;-61
2023/09/12 04:31:00;;;;;;;;;11.25;11.25;;;;;27.63;100.00;100687.97;2122454;27;46394;-61
2023/09/12 04:32:03;;;;;;;;;12.80;12.60;;;;;27.63;100.00;100695.31;2123193;27;46100;-62
2023/09/12 04:33:03;;;;;;;;;11.60;11.00;;;;;27.62;100.00;100689.00;2120914;27;46931;-61
2023/09/12 04:34:04;;;;;;;;;18.25;15.50;;;;;27.61;100.00;100687.28;2122554;27;46851;-62
2023/09/12 04:35:05;;;;;;;;;14.20;13.00;;;;;27.60;100.00;100691.00;2122600;27;46464;-62
2023/09/12 04:36:06;;;;;;;;;13.25;12.75;;;;;27.61;100.00;100694.59;2122043;27;46199;-62
2023/09/12 04:37:06;;;;;;;;;11.00;11.00;;;;;27.62;100.00;100696.31;2122543;27;46279;-62
2023/09/12 04:38:07;;;;;;;;;17.75;16.25;;;;;27.61;100.00;100695.44;2122277;27;46929;-63